Time;durP1;ratioP1;P1;durP2;ratioP2;P2;SDS_P1;SDS_P2;PMS_P1;PMS_P2;Temp;Humidity;BMP_temperature;BMP_pressure;BME280_temperature;BME280_humidity;BME280_pressure;Samples;Min_cycle;Max_cycle;Signal;HPM_P1;HPM_P2
2022/03/12 00:01:50;;;;;;;14.07;9.43;;;;;;;9.37;34.09;101266.22;7391555;19;20011;-68
2022/03/12 00:04:20;;;;;;;18.08;9.63;;;;;;;9.40;34.06;101263.50;7391721;19;20011;-68
2022/03/12 00:06:49;;;;;;;13.75;9.52;;;;;;;9.32;33.98;101266.34;7391451;19;20329;-68
2022/03/12 00:09:21;;;;;;;15.77;9.90;;;;;;;9.28;34.37;101271.75;7390907;19;20340;-68
2022/03/12 00:11:51;;;;;;;15.18;10.02;;;;;;;9.41;33.88;101274.81;7391258;19;20018;-68
2022/03/12 00:14:21;;;;;;;16.02;9.88;;;;;;;9.39;34.35;101267.03;7394783;19;20022;-68
2022/03/12 00:16:51;;;;;;;14.98;9.65;;;;;;;9.37;34.12;101260.13;7390487;19;20014;-68
2022/03/12 00:19:23;;;;;;;14.55;9.65;;;;;;;9.46;34.10;101260.69;7389744;19;20025;-68
2022/03/12 00:21:52;;;;;;;15.20;9.48;;;;;;;9.39;34.42;101264.41;7390749;19;20018;-68
2022/03/12 00:24:28;;;;;;;14.85;9.73;;;;;;;9.32;34.42;101268.97;7391647;19;20041;-69
2022/03/12 00:27:00;;;;;;;13.90;9.52;;;;;;;9.33;34.22;101262.00;7391360;19;20007;-69
2022/03/12 00:29:31;;;;;;;15.60;10.05;;;;;;;9.33;34.04;101270.69;7388170;19;20014;-69
2022/03/12 00:32:00;;;;;;;14.90;10.10;;;;;;;9.32;34.08;101283.81;7388927;19;20011;-69
2022/03/12 00:34:30;;;;;;;13.13;9.02;;;;;;;9.33;34.65;101269.84;7389601;19;20007;-69
2022/03/12 00:36:59;;;;;;;13.32;9.50;;;;;;;9.38;33.87;101272.31;7390365;19;20056;-70
2022/03/12 00:39:30;;;;;;;13.65;9.75;;;;;;;9.32;34.42;101276.81;7389301;19;20026;-68
2022/03/12 00:41:59;;;;;;;12.40;9.13;;;;;;;9.26;34.25;101274.41;7388687;19;20010;-67
2022/03/12 00:44:28;;;;;;;13.32;9.55;;;;;;;9.35;34.15;101266.25;7390244;19;20014;-69
2022/03/12 00:46:57;;;;;;;15.88;9.88;;;;;;;9.38;34.65;101278.38;7390168;19;20006;-69
2022/03/12 00:49:26;;;;;;;17.27;10.15;;;;;;;9.30;34.58;101265.56;7389110;19;20019;-70
2022/03/12 00:51:55;;;;;;;14.80;9.88;;;;;;;9.36;34.65;101264.50;7390096;19;20456;-69
2022/03/12 00:54:24;;;;;;;14.35;9.77;;;;;;;9.26;34.75;101270.94;7390139;19;20021;-69
2022/03/12 00:56:55;;;;;;;14.90;9.35;;;;;;;9.25;34.80;101271.84;7392412;19;20081;-68
2022/03/12 00:59:25;;;;;;;13.45;9.77;;;;;;;9.17;35.03;101269.47;7391596;19;20029;-68
2022/03/12 01:01:53;;;;;;;13.57;9.40;;;;;;;9.16;35.01;101271.22;7391305;19;20518;-68
2022/03/12 01:04:23;;;;;;;14.45;9.63;;;;;;;9.13;34.82;101271.31;7389641;19;20022;-69
2022/03/12 01:06:51;;;;;;;14.07;9.57;;;;;;;9.19;34.89;101280.72;7390347;19;20549;-69
2022/03/12 01:09:20;;;;;;;14.98;9.68;;;;;;;9.25;34.98;101284.91;7388414;19;20022;-69
2022/03/12 01:11:49;;;;;;;16.15;10.55;;;;;;;9.32;34.99;101282.03;7389368;19;20080;-69
2022/03/12 01:14:21;;;;;;;13.50;9.43;;;;;;;9.28;34.99;101282.19;7397654;19;20523;-68
2022/03/12 01:16:50;;;;;;;13.25;9.45;;;;;;;9.14;35.36;101287.84;7393282;19;20030;-69
2022/03/12 01:19:19;;;;;;;13.48;9.48;;;;;;;9.18;35.56;101281.63;7394337;19;20022;-69
2022/03/12 01:21:48;;;;;;;15.10;9.85;;;;;;;9.22;35.84;101278.00;7395312;19;20430;-68
2022/03/12 01:24:16;;;;;;;16.65;9.32;;;;;;;9.20;35.80;101282.44;7395692;19;20014;-69
2022/03/12 01:26:46;;;;;;;15.13;9.45;;;;;;;9.29;36.18;101289.16;7395861;19;20049;-68
2022/03/12 01:29:16;;;;;;;15.25;9.88;;;;;;;9.36;35.67;101285.44;7394285;19;20010;-68
2022/03/12 01:31:47;;;;;;;15.23;9.40;;;;;;;9.13;35.58;101281.78;7396767;19;20036;-68
2022/03/12 01:34:17;;;;;;;14.13;9.35;;;;;;;9.15;35.94;101279.09;7395676;19;20046;-67
2022/03/12 01:36:46;;;;;;;16.67;9.73;;;;;;;9.11;36.17;101282.72;7392940;19;20014;-70
2022/03/12 01:39:15;;;;;;;14.88;9.30;;;;;;;9.17;36.13;101286.00;7394363;19;20023;-70
2022/03/12 01:41:45;;;;;;;11.65;8.82;;;;;;;9.13;35.96;101281.78;7393720;19;20474;-70
2022/03/12 01:44:17;;;;;;;18.60;10.00;;;;;;;9.15;36.02;101284.34;7395068;19;20021;-70
2022/03/12 01:46:50;;;;;;;16.35;10.20;;;;;;;9.24;36.07;101294.53;7393837;19;20015;-70
2022/03/12 01:49:23;;;;;;;15.35;9.48;;;;;;;9.25;36.38;101290.16;7394152;19;20019;-68
2022/03/12 01:51:54;;;;;;;15.23;10.10;;;;;;;9.21;36.47;101283.28;7394015;19;20376;-68
2022/03/12 01:54:25;;;;;;;13.70;9.65;;;;;;;9.25;36.68;101292.75;7396704;19;20121;-68
2022/03/12 01:56:56;;;;;;;15.00;9.77;;;;;;;9.25;36.83;101303.22;7395906;19;20203;-68
2022/03/12 01:59:25;;;;;;;12.52;9.45;;;;;;;9.22;36.73;101295.47;7399146;19;20063;-68
2022/03/12 02:01:57;;;;;;;15.88;10.00;;;;;;;9.30;37.29;101302.19;7397105;19;20010;-70
2022/03/12 02:04:29;;;;;;;15.43;9.67;;;;;;;9.31;37.75;101306.50;7400068;19;20018;-70
2022/03/12 02:07:00;;;;;;;15.80;10.10;;;;;;;9.20;38.17;101298.13;7401641;19;20017;-69
2022/03/12 02:09:29;;;;;;;15.35;10.27;;;;;;;9.28;39.10;101290.03;7396880;19;20019;-67
2022/03/12 02:11:58;;;;;;;15.93;10.50;;;;;;;9.17;40.50;101296.47;7398140;19;20017;-68
2022/03/12 02:14:28;;;;;;;19.92;10.40;;;;;;;9.21;41.39;101304.22;7399601;19;20018;-68
2022/03/12 02:17:03;;;;;;;15.63;10.70;;;;;;;9.18;40.79;101298.19;7392351;19;20030;-68
2022/03/12 02:19:34;;;;;;;14.63;9.98;;;;;;;9.11;41.90;101301.91;7393737;19;20087;-68
2022/03/12 02:22:06;;;;;;;17.02;10.85;;;;;;;9.07;41.99;101307.25;7395085;19;20086;-68
2022/03/12 02:24:39;;;;;;;17.60;10.60;;;;;;;9.02;43.07;101309.16;7392451;19;20014;-67
2022/03/12 02:27:11;;;;;;;15.23;10.40;;;;;;;8.91;43.92;101310.34;7392727;19;20102;-68
2022/03/12 02:29:43;;;;;;;17.48;10.15;;;;;;;8.87;44.19;101313.06;7393115;19;20022;-68
2022/03/12 02:32:16;;;;;;;14.75;10.20;;;;;;;8.73;43.98;101308.25;7394061;19;20057;-68
2022/03/12 02:34:48;;;;;;;17.67;11.20;;;;;;;8.78;43.71;101308.97;7393930;19;20022;-68
2022/03/12 02:37:29;;;;;;;16.80;10.43;;;;;;;8.80;43.95;101302.78;7390003;19;20107;-68
2022/03/12 02:40:04;;;;;;;13.55;10.13;;;;;;;8.87;43.55;101305.22;7390215;19;20100;-69
2022/03/12 02:42:36;;;;;;;17.52;10.45;;;;;;;8.80;43.42;101302.78;7392066;19;20329;-69
2022/03/12 02:45:07;;;;;;;16.13;10.55;;;;;;;8.64;44.52;101302.38;7393992;19;20011;-69
2022/03/12 02:47:40;;;;;;;15.63;10.18;;;;;;;8.72;44.59;101307.38;7391536;19;20002;-68
2022/03/12 02:50:14;;;;;;;19.40;10.85;;;;;;;8.69;44.37;101306.63;7390790;19;20014;-68
2022/03/12 02:52:44;;;;;;;18.77;10.85;;;;;;;8.73;44.87;101305.63;7393705;19;20011;-68
2022/03/12 02:55:19;;;;;;;19.73;10.73;;;;;;;8.74;44.79;101309.94;7394233;19;20010;-68
2022/03/12 02:57:49;;;;;;;15.95;10.52;;;;;;;8.79;44.69;101301.06;7388469;19;20011;-68
2022/03/12 03:00:19;;;;;;;16.63;10.82;;;;;;;8.70;45.15;101305.69;7389769;19;20026;-68
2022/03/12 03:02:53;;;;;;;16.35;10.85;;;;;;;8.66;45.14;101302.34;7391455;19;20014;-68
2022/03/12 03:05:31;;;;;;;16.15;10.98;;;;;;;8.66;45.54;101303.19;7393830;19;20057;-68
2022/03/12 03:08:03;;;;;;;15.02;10.18;;;;;;;8.71;44.80;101304.81;7393101;19;20128;-69
2022/03/12 03:10:37;;;;;;;15.00;10.25;;;;;;;8.87;44.49;101307.81;7391210;19;20537;-69
2022/03/12 03:13:33;;;;;;;15.63;10.45;;;;;;;8.70;44.77;101303.97;7395006;19;20236;-69
2022/03/12 03:16:04;;;;;;;20.00;11.27;;;;;;;8.80;44.49;101312.41;7394218;19;20019;-69
2022/03/12 03:18:38;;;;;;;15.23;10.82;;;;;;;8.88;44.38;101314.78;7394915;19;20014;-69
2022/03/12 03:21:09;;;;;;;19.23;10.88;;;;;;;8.73;44.30;101316.94;7390713;19;20376;-68
2022/03/12 03:23:38;;;;;;;18.15;11.18;;;;;;;8.76;44.92;101310.78;7393182;19;20018;-68
2022/03/12 03:26:10;;;;;;;16.80;11.18;;;;;;;8.66;44.88;101310.19;7393103;19;20015;-69
2022/03/12 03:28:39;;;;;;;18.15;11.02;;;;;;;8.61;46.08;101304.22;7395802;19;20383;-67
2022/03/12 03:31:09;;;;;;;15.63;10.52;;;;;;;8.66;45.40;101313.63;7392573;19;20015;-68
2022/03/12 03:33:38;;;;;;;16.65;11.18;;;;;;;8.75;45.24;101322.97;7393000;19;20018;-68
2022/03/12 03:36:07;;;;;;;16.10;10.93;;;;;;;8.69;45.44;101315.31;7393095;19;20025;-68
2022/03/12 03:38:36;;;;;;;20.08;11.85;;;;;;;8.62;45.01;101319.84;7392296;19;20022;-68
2022/03/12 03:41:05;;;;;;;17.65;11.45;;;;;;;8.78;44.65;101327.25;7390996;19;20018;-68
2022/03/12 03:43:37;;;;;;;18.52;12.20;;;;;;;8.81;44.46;101335.00;7391601;19;20017;-68
2022/03/12 03:46:06;;;;;;;16.88;11.20;;;;;;;8.94;44.29;101330.28;7391460;19;20337;-68
2022/03/12 03:48:40;;;;;;;18.73;11.52;;;;;;;8.85;44.31;101330.56;7389889;19;20018;-68
2022/03/12 03:51:10;;;;;;;17.35;11.60;;;;;;;8.84;44.51;101329.72;7386948;19;20015;-68
2022/03/12 03:53:39;;;;;;;18.80;11.60;;;;;;;8.91;44.10;101338.22;7389780;19;20014;-70
2022/03/12 03:56:08;;;;;;;19.63;11.90;;;;;;;8.85;44.88;101334.00;7389772;19;20026;-70
2022/03/12 03:58:40;;;;;;;15.98;11.10;;;;;;;8.87;43.98;101328.72;7391303;19;20014;-67
2022/03/12 04:01:14;;;;;;;19.02;12.40;;;;;;;8.89;44.03;101332.19;7387404;19;20014;-68
2022/03/12 04:03:48;;;;;;;18.10;12.15;;;;;;;8.96;44.06;101338.94;7391007;19;20015;-68
2022/03/12 04:06:19;;;;;;;20.95;12.10;;;;;;;9.03;43.63;101344.81;7389991;19;20018;-68
2022/03/12 04:08:50;;;;;;;;;;;;;;;8.92;43.94;101339.94;7389530;19;20017;-67
2022/03/12 04:11:22;;;;;;;21.77;11.80;;;;;;;9.07;43.42;101343.84;7389886;19;20277;-68
2022/03/12 04:13:55;;;;;;;21.90;12.43;;;;;;;9.15;43.48;101341.84;7392833;19;20018;-67
2022/03/12 04:16:28;;;;;;;18.42;11.55;;;;;;;9.11;44.18;101350.69;7390128;19;20011;-68
2022/03/12 04:18:57;;;;;;;17.63;12.00;;;;;;;9.23;43.42;101355.56;7390145;19;20022;-67
2022/03/12 04:21:26;;;;;;;18.92;11.75;;;;;;;9.13;43.96;101351.53;7389617;19;20025;-66
2022/03/12 04:23:56;;;;;;;19.85;12.55;;;;;;;9.07;43.90;101343.84;7389915;19;20010;-67
2022/03/12 04:26:25;;;;;;;20.58;11.80;;;;;;;9.18;43.97;101353.09;7390010;19;20026;-68
2022/03/12 04:28:58;;;;;;;18.70;12.32;;;;;;;9.33;43.34;101364.00;7388972;19;20015;-67
2022/03/12 04:31:27;;;;;;;18.60;11.85;;;;;;;9.13;43.89;101357.59;7388475;19;20018;-69
2022/03/12 04:33:56;;;;;;;19.08;11.38;;;;;;;8.99;44.57;101360.59;7390181;19;20121;-68
2022/03/12 04:36:25;;;;;;;21.27;12.10;;;;;;;9.00;45.04;101362.31;7387197;19;20348;-69
2022/03/12 04:38:54;;;;;;;19.13;11.98;;;;;;;8.96;44.98;101359.84;7389008;19;20069;-67
2022/03/12 04:41:24;;;;;;;19.40;11.63;;;;;;;9.09;44.94;101362.97;7388856;19;20011;-67
2022/03/12 04:43:53;;;;;;;16.17;11.48;;;;;;;9.15;45.05;101368.00;7389857;19;20078;-67
2022/03/12 04:46:24;;;;;;;18.25;11.80;;;;;;;8.95;45.82;101361.59;7389410;19;20015;-67
2022/03/12 04:48:53;;;;;;;18.13;12.25;;;;;;;8.94;46.15;101366.88;7393635;19;20069;-67
2022/03/12 04:51:22;;;;;;;18.27;12.13;;;;;;;8.74;46.62;101370.91;7395531;19;20019;-67
2022/03/12 04:53:51;;;;;;;17.80;12.30;;;;;;;8.73;47.06;101371.81;7397229;19;20071;-67
2022/03/12 04:56:20;;;;;;;18.80;12.40;;;;;;;8.77;47.04;101372.59;7397324;19;20010;-67
2022/03/12 04:58:49;;;;;;;17.42;11.70;;;;;;;8.68;47.35;101378.06;7396406;19;20014;-67
2022/03/12 05:01:19;;;;;;;21.02;12.10;;;;;;;8.63;47.86;101388.63;7396833;19;20033;-67
2022/03/12 05:03:52;;;;;;;19.95;12.13;;;;;;;8.66;47.49;101381.56;7396721;19;20702;-70
2022/03/12 05:06:23;;;;;;;20.13;11.85;;;;;;;8.66;47.57;101384.16;7398128;19;20500;-67
2022/03/12 05:08:53;;;;;;;19.25;12.18;;;;;;;8.70;47.42;101386.69;7397854;19;20053;-67
2022/03/12 05:11:22;;;;;;;20.30;12.27;;;;;;;8.69;47.42;101390.22;7395256;19;20006;-67
2022/03/12 05:13:53;;;;;;;19.63;12.13;;;;;;;8.71;47.69;101389.28;7400283;19;20021;-67
2022/03/12 05:16:22;;;;;;;18.95;12.48;;;;;;;8.66;47.39;101391.16;7396442;19;20022;-67
2022/03/12 05:18:58;;;;;;;19.98;12.15;;;;;;;8.57;47.87;101399.25;7397647;19;20007;-67
2022/03/12 05:21:27;;;;;;;18.98;12.02;;;;;;;8.41;48.08;101391.78;7394185;19;20015;-61
2022/03/12 05:23:56;;;;;;;20.83;12.73;;;;;;;8.38;48.20;101402.31;7398444;19;20030;-61
2022/03/12 05:26:26;;;;;;;18.40;12.77;;;;;;;8.34;48.34;101405.91;7394825;19;20029;-61
2022/03/12 05:28:55;;;;;;;21.52;12.73;;;;;;;8.32;48.42;101403.34;7395220;19;20074;-61
2022/03/12 05:31:24;;;;;;;20.33;12.68;;;;;;;8.22;49.23;101400.97;7392172;19;20034;-61
2022/03/12 05:33:57;;;;;;;23.50;12.98;;;;;;;8.26;49.12;101410.44;7395172;19;20014;-61
2022/03/12 05:36:26;;;;;;;19.15;12.45;;;;;;;8.45;48.92;101413.47;7394207;19;20018;-62
2022/03/12 05:38:55;;;;;;;21.80;12.38;;;;;;;8.54;48.75;101415.88;7394947;19;20307;-61
2022/03/12 05:41:26;;;;;;;19.25;12.75;;;;;;;8.37;49.26;101410.16;7393214;19;20042;-60
2022/03/12 05:43:56;;;;;;;21.90;13.32;;;;;;;8.26;49.21;101410.44;7395934;19;20350;-62
2022/03/12 05:46:25;;;;;;;21.40;12.35;;;;;;;8.13;49.95;101410.75;7394658;19;20025;-62
2022/03/12 05:48:56;;;;;;;17.95;12.30;;;;;;;8.01;50.32;101418.00;7393879;19;20015;-61
2022/03/12 05:51:25;;;;;;;21.52;12.45;;;;;;;7.89;51.17;101408.72;7391735;19;20015;-62
2022/03/12 05:53:54;;;;;;;20.25;12.77;;;;;;;7.87;51.25;101411.38;7393601;19;20014;-62
2022/03/12 05:56:23;;;;;;;19.02;12.32;;;;;;;7.92;51.04;101414.75;7393457;19;20014;-61
2022/03/12 05:58:55;;;;;;;20.08;12.27;;;;;;;7.95;51.28;101421.63;7393360;19;20018;-61
2022/03/12 06:01:24;;;;;;;18.88;12.52;;;;;;;7.88;51.18;101425.28;7390806;19;20014;-61
2022/03/12 06:03:53;;;;;;;18.80;12.48;;;;;;;8.09;50.89;101429.97;7392689;19;20030;-59
2022/03/12 06:06:27;;;;;;;19.65;12.73;;;;;;;7.99;51.13;101431.09;7393376;19;20019;-60
2022/03/12 06:08:58;;;;;;;18.25;12.23;;;;;;;7.89;51.15;101433.06;7393465;19;20021;-61
2022/03/12 06:11:29;;;;;;;20.25;12.38;;;;;;;7.81;51.68;101435.00;7392434;19;20046;-61
2022/03/12 06:14:00;;;;;;;22.73;12.63;;;;;;;7.96;51.73;101439.00;7396336;19;20108;-61
2022/03/12 06:16:30;;;;;;;18.27;12.18;;;;;;;7.92;51.48;101435.63;7394217;19;20093;-60
2022/03/12 06:18:59;;;;;;;17.90;12.27;;;;;;;7.77;51.76;101451.63;7392963;19;20030;-61
2022/03/12 06:21:31;;;;;;;19.48;12.27;;;;;;;7.84;52.02;101453.19;7390986;19;20014;-61
2022/03/12 06:24:00;;;;;;;19.30;12.70;;;;;;;7.86;52.32;101448.78;7392747;19;20018;-62
2022/03/12 06:26:35;;;;;;;18.58;11.90;;;;;;;7.73;52.49;101448.22;7392892;19;20036;-62
2022/03/12 06:29:06;;;;;;;22.67;12.73;;;;;;;7.69;52.67;101450.94;7392042;19;20126;-62
2022/03/12 06:31:35;;;;;;;18.08;11.98;;;;;;;7.65;53.00;101452.75;7391056;19;20024;-60
2022/03/12 06:34:05;;;;;;;16.90;11.48;;;;;;;7.60;53.06;101454.59;7392220;19;20381;-61
2022/03/12 06:36:39;;;;;;;17.90;12.90;;;;;;;7.58;52.67;101456.41;7392188;19;20358;-61
2022/03/12 06:39:08;;;;;;;17.88;12.38;;;;;;;7.62;52.81;101452.81;7389392;19;20022;-61
2022/03/12 06:41:43;;;;;;;19.80;11.73;;;;;;;7.68;52.69;101457.91;7390536;19;20021;-61
2022/03/12 06:44:13;;;;;;;17.80;11.93;;;;;;;7.74;52.42;101456.91;7392647;19;20025;-62
2022/03/12 06:46:43;;;;;;;16.30;11.75;;;;;;;7.70;52.16;101461.31;7392601;19;20078;-61
2022/03/12 06:49:12;;;;;;;17.38;12.05;;;;;;;7.88;52.53;101464.41;7391701;19;20026;-61
2022/03/12 06:51:43;;;;;;;17.27;12.15;;;;;;;8.03;52.33;101474.50;7390900;19;20015;-61
2022/03/12 06:54:12;;;;;;;19.08;12.90;;;;;;;8.11;51.42;101471.75;7392652;19;20045;-62
2022/03/12 06:56:41;;;;;;;19.42;12.82;;;;;;;7.97;51.90;101472.91;7392264;19;20007;-62
2022/03/12 06:59:10;;;;;;;20.35;12.10;;;;;;;8.00;51.52;101477.19;7391861;19;20025;-62
2022/03/12 07:01:39;;;;;;;17.63;11.90;;;;;;;8.03;51.67;101478.88;7391261;19;20018;-62
2022/03/12 07:04:11;;;;;;;25.23;13.18;;;;;;;8.09;51.52;101479.56;7393231;19;20035;-62
2022/03/12 07:06:42;;;;;;;17.80;11.82;;;;;;;8.01;51.43;101485.88;7392078;19;20739;-61
2022/03/12 07:09:11;;;;;;;19.33;12.45;;;;;;;7.87;52.16;101483.59;7391341;19;20018;-63
2022/03/12 07:11:40;;;;;;;21.48;13.43;;;;;;;7.83;52.85;101482.78;7387618;19;20038;-63
2022/03/12 07:14:09;;;;;;;17.95;11.68;;;;;;;7.98;52.71;101481.59;7396034;19;20010;-58
2022/03/12 07:16:38;;;;;;;17.50;11.70;;;;;;;8.00;52.52;101484.19;7390445;19;20014;-63
2022/03/12 07:19:07;;;;;;;19.90;12.38;;;;;;;7.86;53.18;101485.31;7390724;19;20021;-61
2022/03/12 07:21:37;;;;;;;19.77;12.52;;;;;;;7.89;53.12;101487.84;7389680;19;20025;-61
2022/03/12 07:24:09;;;;;;;18.27;11.82;;;;;;;7.80;53.19;101488.06;7391280;19;20011;-60
2022/03/12 07:26:39;;;;;;;16.13;12.10;;;;;;;7.76;53.63;101494.25;7390822;19;20015;-60
2022/03/12 07:29:08;;;;;;;18.02;12.23;;;;;;;8.00;53.57;101507.66;7390138;19;20014;-59
2022/03/12 07:31:37;;;;;;;17.95;11.50;;;;;;;8.16;52.61;101508.16;7389231;19;20018;-61
2022/03/12 07:34:07;;;;;;;17.55;11.75;;;;;;;7.87;53.48;101504.47;7390676;19;20018;-61
2022/03/12 07:36:36;;;;;;;20.15;12.00;;;;;;;8.02;53.97;101516.31;7391317;19;20015;-61
2022/03/12 07:39:08;;;;;;;18.13;11.40;;;;;;;8.08;53.83;101511.81;7385863;19;20011;-62
2022/03/12 07:41:36;;;;;;;15.40;11.15;;;;;;;8.21;54.07;101515.00;7388328;19;20037;-58
2022/03/12 07:44:07;;;;;;;15.40;11.27;;;;;;;8.30;54.24;101509.56;7389852;19;20015;-61
2022/03/12 07:46:36;;;;;;;18.95;11.57;;;;;;;8.25;54.30;101506.22;7390067;19;20491;-60
2022/03/12 07:49:06;;;;;;;17.58;11.70;;;;;;;8.30;54.42;101514.78;7389499;19;20014;-62
2022/03/12 07:51:36;;;;;;;18.55;11.38;;;;;;;8.44;53.88;101511.88;7389200;19;20316;-62
2022/03/12 07:54:08;;;;;;;17.85;11.70;;;;;;;8.42;54.06;101520.59;7389851;19;20014;-61
2022/03/12 07:56:38;;;;;;;19.25;11.55;;;;;;;8.50;54.13;101531.75;7389778;19;20125;-61
2022/03/12 07:59:07;;;;;;;17.33;11.45;;;;;;;8.54;54.06;101529.91;7387314;19;20026;-61
2022/03/12 08:01:37;;;;;;;15.85;10.93;;;;;;;8.59;54.44;101525.44;7388180;19;20007;-60
2022/03/12 08:04:07;;;;;;;20.35;11.38;;;;;;;8.59;54.65;101528.91;7388830;19;20011;-61
2022/03/12 08:06:36;;;;;;;18.80;11.82;;;;;;;8.60;54.76;101532.41;7389685;19;20014;-62
2022/03/12 08:09:08;;;;;;;16.40;11.32;;;;;;;8.68;54.65;101532.19;7388972;19;20014;-60
2022/03/12 08:11:38;;;;;;;17.15;11.77;;;;;;;8.74;54.72;101535.53;7388270;19;20010;-60
2022/03/12 08:14:17;;;;;;;18.58;11.65;;;;;;;8.75;54.62;101534.59;7393675;19;20018;-62
2022/03/12 08:16:47;;;;;;;16.63;11.50;;;;;;;8.69;55.04;101545.22;7390251;19;20014;-61
2022/03/12 08:19:16;;;;;;;16.42;11.60;;;;;;;8.79;55.27;101543.25;7387125;19;20573;-61
2022/03/12 08:21:45;;;;;;;14.93;10.75;;;;;;;8.85;55.31;101555.28;7385978;19;20017;-62
2022/03/12 08:24:17;;;;;;;17.10;11.52;;;;;;;9.08;55.74;101552.94;7395448;19;20026;-61
2022/03/12 08:26:48;;;;;;;16.90;11.25;;;;;;;9.06;55.89;101562.59;7398157;19;20018;-62
2022/03/12 08:29:18;;;;;;;20.58;11.82;;;;;;;9.09;56.01;101561.66;7397368;19;20018;-62
2022/03/12 08:31:49;;;;;;;18.92;11.15;;;;;;;9.25;55.97;101565.56;7395607;19;20010;-61
2022/03/12 08:34:21;;;;;;;16.35;11.85;;;;;;;9.27;56.25;101571.63;7397421;19;20014;-62
2022/03/12 08:36:50;;;;;;;15.15;10.50;;;;;;;9.44;56.65;101576.41;7397006;19;20348;-62
2022/03/12 08:39:21;;;;;;;15.55;11.48;;;;;;;9.53;56.09;101578.75;7393256;19;20013;-62
2022/03/12 08:41:51;;;;;;;20.20;11.50;;;;;;;9.53;56.70;101584.00;7393968;19;20026;-60
2022/03/12 08:44:21;;;;;;;16.33;11.45;;;;;;;9.61;56.59;101577.69;7396617;19;20022;-62
2022/03/12 08:46:50;;;;;;;14.50;11.10;;;;;;;9.51;56.88;101577.97;7397023;19;20021;-62
2022/03/12 08:49:21;;;;;;;17.83;11.07;;;;;;;9.61;57.04;101581.16;7395780;19;20423;-61
2022/03/12 08:51:50;;;;;;;14.63;10.15;;;;;;;9.78;57.57;101585.91;7394933;19;20359;-62
2022/03/12 08:54:21;;;;;;;14.48;11.00;;;;;;;9.74;57.78;101586.91;7396374;19;20014;-62
2022/03/12 08:56:50;;;;;;;15.57;11.00;;;;;;;9.80;58.26;101588.47;7396154;19;20020;-61
2022/03/12 08:59:19;;;;;;;19.55;11.60;;;;;;;9.95;58.20;101589.81;7392751;19;20014;-61
2022/03/12 09:01:49;;;;;;;14.00;10.77;;;;;;;10.06;58.34;101592.97;7393421;19;20011;-62
2022/03/12 09:04:19;;;;;;;17.67;11.38;;;;;;;10.14;58.48;101588.34;7398475;19;20044;-62
2022/03/12 09:06:49;;;;;;;15.38;10.95;;;;;;;10.22;58.94;101582.91;7398004;19;20123;-63
2022/03/12 09:09:21;;;;;;;14.57;10.38;;;;;;;10.24;60.38;101573.22;7397440;19;20052;-61
2022/03/12 09:11:50;;;;;;;13.02;9.93;;;;;;;10.33;61.80;101585.16;7394946;19;20010;-62
2022/03/12 09:14:19;;;;;;;12.48;9.48;;;;;;;10.56;62.07;101587.97;7400887;19;20011;-62
2022/03/12 09:16:48;;;;;;;13.52;10.00;;;;;;;10.67;61.35;101592.00;7396591;19;20320;-62
2022/03/12 09:19:17;;;;;;;16.92;10.15;;;;;;;10.82;61.56;101588.91;7393358;19;20022;-62
2022/03/12 09:21:46;;;;;;;15.07;9.48;;;;;;;10.92;61.78;101584.22;7393881;19;20023;-62
2022/03/12 09:24:15;;;;;;;15.82;10.45;;;;;;;10.96;60.83;101593.69;7395861;19;20351;-61
2022/03/12 09:26:46;;;;;;;13.05;9.63;;;;;;;10.89;61.21;101579.91;7395761;19;20014;-61
2022/03/12 09:29:15;;;;;;;14.85;10.20;;;;;;;10.99;61.13;101585.72;7394831;19;20011;-62
2022/03/12 09:31:44;;;;;;;13.75;9.43;;;;;;;11.06;61.10;101584.59;7393296;19;20018;-62
2022/03/12 09:34:13;;;;;;;12.95;9.07;;;;;;;11.16;61.64;101582.53;7394885;19;20475;-63
2022/03/12 09:36:42;;;;;;;14.07;10.00;;;;;;;11.29;60.81;101587.31;7395816;19;20483;-62
2022/03/12 09:39:12;;;;;;;14.77;9.95;;;;;;;11.31;60.91;101589.00;7393011;19;20053;-62
2022/03/12 09:41:40;;;;;;;13.48;9.57;;;;;;;11.25;60.98;101586.59;7393646;19;20360;-62
2022/03/12 09:44:13;;;;;;;13.88;8.90;;;;;;;11.17;61.56;101591.22;7395145;19;20017;-61
2022/03/12 09:46:42;;;;;;;11.32;9.00;;;;;;;11.18;61.64;101601.66;7395700;19;20021;-63
2022/03/12 09:49:11;;;;;;;14.20;8.45;;;;;;;11.12;62.19;101604.50;7394181;19;20014;-63
2022/03/12 09:51:40;;;;;;;12.82;8.90;;;;;;;11.14;62.11;101601.84;7394151;19;20015;-61
2022/03/12 09:54:12;;;;;;;13.30;9.20;;;;;;;11.26;62.31;101606.66;7395442;19;20017;-62
2022/03/12 09:56:42;;;;;;;13.70;8.77;;;;;;;11.41;62.13;101603.50;7395921;19;20085;-61
2022/03/12 09:59:13;;;;;;;12.65;8.70;;;;;;;11.53;61.18;101603.97;7393273;19;20014;-61
2022/03/12 10:01:43;;;;;;;13.20;8.45;;;;;;;11.57;61.47;101616.09;7393626;19;20022;-64
2022/03/12 10:04:12;;;;;;;10.90;8.20;;;;;;;11.67;61.23;101609.59;7394491;19;20487;-60
2022/03/12 10:06:42;;;;;;;10.45;8.20;;;;;;;11.70;61.21;101609.47;7394056;19;20019;-62
2022/03/12 10:09:13;;;;;;;13.45;8.43;;;;;;;11.77;60.77;101597.81;7393922;19;20007;-62
2022/03/12 10:11:42;;;;;;;12.43;8.20;;;;;;;11.77;60.81;101596.97;7392753;19;20020;-60
2022/03/12 10:14:15;;;;;;;9.90;7.60;;;;;;;11.77;61.14;101597.81;7398189;19;20015;-62
2022/03/12 10:16:44;;;;;;;8.40;6.50;;;;;;;11.88;60.98;101596.59;7394161;19;20022;-62
2022/03/12 10:19:12;;;;;;;11.73;8.10;;;;;;;11.94;60.86;101597.22;7393030;19;20006;-62
2022/03/12 10:21:45;;;;;;;10.80;7.82;;;;;;;11.92;60.54;101604.28;7391163;19;20357;-62
2022/03/12 10:24:14;;;;;;;12.15;8.02;;;;;;;11.83;60.81;101598.53;7394824;19;20041;-63
2022/03/12 10:26:45;;;;;;;11.05;8.27;;;;;;;11.84;61.28;101605.50;7393438;19;20399;-62
2022/03/12 10:29:16;;;;;;;10.30;7.57;;;;;;;12.00;60.41;101604.03;7391640;19;20010;-62
2022/03/12 10:31:45;;;;;;;12.45;8.07;;;;;;;11.90;60.80;101606.09;7391830;19;20022;-61
2022/03/12 10:34:22;;;;;;;12.95;8.18;;;;;;;11.93;61.44;101607.78;7393761;19;20021;-62
2022/03/12 10:36:52;;;;;;;14.90;9.15;;;;;;;11.90;61.43;101603.47;7394772;19;20014;-62
2022/03/12 10:39:34;;;;;;;11.15;7.13;;;;;;;11.97;60.23;101598.91;7392370;19;20042;-62
2022/03/12 10:42:05;;;;;;;12.20;7.00;;;;;;;11.90;60.28;101607.88;7394131;19;20018;-63
2022/03/12 10:44:41;;;;;;;9.48;6.18;;;;;;;11.84;60.11;101608.97;7393040;19;20317;-63
2022/03/12 10:47:19;;;;;;;7.82;6.03;;;;;;;11.77;59.79;101607.47;7394145;19;20018;-62
2022/03/12 10:49:57;;;;;;;8.10;5.80;;;;;;;11.87;59.88;101615.88;7394392;19;20032;-62
2022/03/12 10:52:28;;;;;;;11.65;6.20;;;;;;;11.85;60.00;101609.81;7394521;19;20014;-62
2022/03/12 10:54:58;;;;;;;10.82;6.50;;;;;;;11.96;59.28;101609.47;7392914;19;20035;-61
2022/03/12 10:57:27;;;;;;;10.15;5.20;;;;;;;12.03;58.40;101614.41;7392037;19;20018;-62
2022/03/12 10:59:59;;;;;;;8.55;5.80;;;;;;;12.18;57.76;101622.63;7391027;19;20019;-62
2022/03/12 11:02:28;;;;;;;9.07;5.00;;;;;;;12.25;56.17;101626.75;7393203;19;20367;-62
2022/03/12 11:04:57;;;;;;;11.27;5.55;;;;;;;11.97;57.14;101625.16;7392603;19;20025;-62
2022/03/12 11:07:27;;;;;;;8.80;4.88;;;;;;;11.97;57.11;101629.56;7391508;19;20019;-62
2022/03/12 11:09:57;;;;;;;7.25;5.25;;;;;;;11.94;57.54;101630.53;7391546;19;20485;-62
2022/03/12 11:12:30;;;;;;;9.75;5.68;;;;;;;11.84;57.27;101635.22;7393882;19;20486;-62
2022/03/12 11:15:08;;;;;;;6.88;5.10;;;;;;;11.98;56.82;101624.25;7392906;19;20481;-60
2022/03/12 11:17:43;;;;;;;9.02;4.97;;;;;;;12.05;57.22;101627.50;7392105;19;20048;-61
2022/03/12 11:20:21;;;;;;;9.05;5.15;;;;;;;12.06;57.23;101629.22;7390154;19;20357;-62
2022/03/12 11:22:52;;;;;;;8.55;5.50;;;;;;;12.23;56.61;101625.94;7394300;19;20022;-70
2022/03/12 11:25:25;;;;;;;9.77;5.57;;;;;;;12.24;56.24;101625.88;7396545;19;20011;-69
2022/03/12 11:27:59;;;;;;;8.55;6.00;;;;;;;12.41;56.23;101624.41;7393238;19;20467;-70
2022/03/12 11:30:33;;;;;;;9.77;5.90;;;;;;;12.37;56.67;101620.16;7391318;19;20478;-70
2022/03/12 11:33:09;;;;;;;9.63;5.50;;;;;;;12.34;57.33;101626.41;7390057;19;20014;-70
2022/03/12 11:35:39;;;;;;;9.13;5.60;;;;;;;12.49;55.79;101622.31;7392512;19;20360;-69